Tim S. Dool — VGPY — position and weather

sailwx.info

Track history (hours):
 
Tides and Currents Weather Stations Pressure Air Temp Water Temp Dewpoint Dewpoint Depression Visibility Wind Speed Wind Dir Waves Ship Positions

Tim S. Dool

Last reported at 2016-Jun-28 18:13 UTC. Time now 2016-Jun-28 20:43 UTC.
Position N 43°01' W 079°13'.

Length 223 m; draft 6.5 m.

Type: Cargo ship. MMSI: 316001696.

Date/timePositionNaut miles runAvg speedWind from/ knotsBaromVisibWave heightAir tempDewpointWater temp
2016-Jun-28 18:13N 43°01' W 079°13'4 6.6
2016-Jun-28 17:33N 43°06' W 079°12'2 2.4
2016-Jun-28 16:32N 43°08' W 079°12'0 0.2
2016-Jun-28 15:32N 43°08' W 079°12'1 1.2
2016-Jun-28 14:34N 43°09' W 079°12'2 2.1
2016-Jun-28 13:33N 43°11' W 079°12'0 0.4
2016-Jun-28 12:31N 43°12' W 079°12'2 1.6
2016-Jun-28 11:32N 43°13' W 079°13'5 5.6
2016-Jun-28 10:33N 43°17' W 079°18'4 0.2
2016-Jun-27 09:11N 43°17' W 079°24'710.3
2016-Jun-27 08:31N 43°16' W 079°15'3 3.3
2016-Jun-27 07:29N 43°13' W 079°13'2 1.3
2016-Jun-27 06:19N 43°12' W 079°12'200 4.8
2016-Jun-25 13:00N 45°06' W 083°00'6411.6 220 / 41016.010.8 0.519.0
2016-Jun-25 07:31N 45°57' W 083°54'19910.2
2016-Jun-24 12:00N 47°36' W 088°06'14913.0 230 / 91013.010.8 14.0
2016-Jun-24 00:33N 46°54' W 091°36'1312.7
2016-Jun-23 23:33N 46°47' W 091°52'8 7.4
2016-Jun-23 22:26N 46°42' W 092°01'0 0.0
2016-Jun-23 21:26N 46°42' W 092°01'0 0.0
2016-Jun-23 20:29N 46°42' W 092°01'0 0.0
2016-Jun-23 19:29N 46°42' W 092°01'0 0.0
2016-Jun-23 18:29N 46°42' W 092°01'0 0.0
2016-Jun-23 17:32N 46°42' W 092°01'0 0.0
2016-Jun-23 16:32N 46°42' W 092°01'0 0.0
2016-Jun-23 15:32N 46°42' W 092°01'0 0.0
2016-Jun-23 14:32N 46°42' W 092°01'0 0.0
2016-Jun-23 13:32N 46°42' W 092°01'0 0.0
2016-Jun-23 12:33N 46°42' W 092°01'0 0.0
2016-Jun-23 11:33N 46°42' W 092°01'0 0.0
2016-Jun-23 10:24N 46°42' W 092°01'0 0.1
2016-Jun-23 09:27N 46°42' W 092°01'2 2.0
2016-Jun-23 08:31N 46°43' W 091°60'2 2.4
2016-Jun-23 07:31N 46°46' W 091°58'0 0.1
2016-Jun-23 05:22N 46°46' W 091°59'0 0.0
2016-Jun-23 04:31N 46°46' W 091°58'0 0.0
2016-Jun-23 03:22N 46°46' W 091°59'0 0.1
2016-Jun-23 02:25N 46°46' W 091°58'0 0.1
2016-Jun-23 01:25N 46°46' W 091°59'0 0.0
2016-Jun-23 00:25N 46°46' W 091°59'0 0.0
2016-Jun-22 23:28N 46°46' W 091°59'0 0.0
2016-Jun-22 22:13N 46°46' W 091°59'0 0.0
2016-Jun-22 21:25N 46°46' W 091°59'0 0.0
2016-Jun-22 20:31N 46°46' W 091°59'0 0.0
2016-Jun-22 19:31N 46°46' W 091°59'0 0.0
2016-Jun-22 18:19N 46°46' W 091°59'0 0.0
2016-Jun-22 17:31N 46°46' W 091°59'0 0.0
2016-Jun-22 16:31N 46°46' W 091°59'4 4.2
2016-Jun-22 15:33N 46°43' W 092°03'3 2.7
2016-Jun-22 14:33N 46°45' W 092°06'0 0.0
2016-Jun-22 13:21N 46°45' W 092°06'0 0.0
2016-Jun-22 12:33N 46°45' W 092°06'0 0.0
2016-Jun-22 11:33N 46°45' W 092°06'0 0.0
2016-Jun-22 10:24N 46°45' W 092°06'0 0.0
2016-Jun-22 09:21N 46°45' W 092°06'0 0.0
2016-Jun-22 08:27N 46°45' W 092°06'0 0.0
2016-Jun-22 07:27N 46°45' W 092°06'0 0.0
2016-Jun-22 06:27N 46°45' W 092°06'0 0.0
2016-Jun-22 05:30N 46°45' W 092°06'0 0.0
2016-Jun-22 04:30N 46°45' W 092°06'0 0.0
2016-Jun-22 03:33N 46°45' W 092°06'0 0.0
2016-Jun-22 02:33N 46°45' W 092°06'0 0.0
2016-Jun-22 01:30N 46°45' W 092°06'0 0.0
2016-Jun-22 00:33N 46°45' W 092°06'0 0.0
2016-Jun-21 23:33N 46°45' W 092°06'0 0.0
2016-Jun-21 22:33N 46°45' W 092°06'0 0.0
2016-Jun-21 21:33N 46°45' W 092°06'0 0.0
2016-Jun-21 20:21N 46°45' W 092°06'0 0.0
2016-Jun-21 19:24N 46°45' W 092°06'0 0.0
2016-Jun-21 18:27N 46°45' W 092°06'0 0.0
2016-Jun-21 17:27N 46°45' W 092°06'0 0.0
2016-Jun-21 16:30N 46°45' W 092°06'0 0.0
2016-Jun-21 15:30N 46°45' W 092°06'0 0.0
2016-Jun-21 14:30N 46°45' W 092°06'0 0.0
2016-Jun-21 13:33N 46°45' W 092°06'0 0.0
2016-Jun-21 12:33N 46°45' W 092°06'0 0.0
2016-Jun-21 11:21N 46°45' W 092°06'0 0.0
2016-Jun-21 10:33N 46°45' W 092°06'0 0.0
2016-Jun-21 09:33N 46°45' W 092°06'0 0.0
2016-Jun-21 08:33N 46°45' W 092°06'0 0.0
2016-Jun-21 07:33N 46°45' W 092°06'0 0.0
2016-Jun-21 04:27N 46°45' W 092°06'0 0.0
2016-Jun-21 03:27N 46°45' W 092°06'0 0.0
2016-Jun-21 02:30N 46°45' W 092°06'0 0.0
2016-Jun-21 01:33N 46°45' W 092°06'0 0.0
2016-Jun-21 00:33N 46°45' W 092°06'0 0.0
2016-Jun-20 23:33N 46°45' W 092°06'0 0.0
2016-Jun-20 22:33N 46°45' W 092°06'0 0.0
2016-Jun-20 21:33N 46°45' W 092°06'0 0.0
2016-Jun-20 20:33N 46°45' W 092°06'0 0.0
2016-Jun-20 19:33N 46°45' W 092°06'0 0.0
2016-Jun-20 18:33N 46°45' W 092°06'0 0.0
2016-Jun-20 17:33N 46°45' W 092°06'0 0.0
2016-Jun-20 16:33N 46°45' W 092°06'0 0.0
2016-Jun-20 15:33N 46°45' W 092°06'0 0.0
2016-Jun-20 14:34N 46°45' W 092°06'0 0.0
2016-Jun-20 13:33N 46°45' W 092°06'0 0.0
2016-Jun-20 12:33N 46°45' W 092°06'0 0.0
2016-Jun-20 11:33N 46°45' W 092°06'0 0.0
2016-Jun-20 10:33N 46°45' W 092°06'0 0.0
2016-Jun-20 09:33N 46°45' W 092°06'0 0.0
2016-Jun-20 08:33N 46°45' W 092°06'0 0.0
2016-Jun-20 07:33N 46°45' W 092°06'0 0.0
2016-Jun-20 06:33N 46°45' W 092°06'0 0.0
2016-Jun-20 05:33N 46°45' W 092°06'0 0.0
2016-Jun-20 04:34N 46°45' W 092°06'0 0.0
2016-Jun-20 03:33N 46°45' W 092°06'0 0.0
2016-Jun-20 02:33N 46°45' W 092°06'0 0.0
2016-Jun-20 01:33N 46°45' W 092°06'0 0.0
2016-Jun-20 00:33N 46°45' W 092°06'0 0.0
2016-Jun-19 23:33N 46°45' W 092°06'0 0.0
2016-Jun-19 22:33N 46°45' W 092°06'0 0.0
2016-Jun-19 21:33N 46°45' W 092°06'0 0.0
2016-Jun-19 20:33N 46°45' W 092°06'0 0.0
2016-Jun-19 19:33N 46°45' W 092°06'0 0.0
2016-Jun-19 18:33N 46°45' W 092°06'0 0.0
2016-Jun-19 17:33N 46°45' W 092°06'0 0.0
2016-Jun-19 16:33N 46°45' W 092°06'0 0.0
2016-Jun-19 15:33N 46°45' W 092°06'0 0.0
2016-Jun-19 14:33N 46°45' W 092°06'0 0.0
2016-Jun-19 13:33N 46°45' W 092°06'0 0.0
2016-Jun-19 12:33N 46°45' W 092°06'0 0.0
2016-Jun-19 11:33N 46°45' W 092°06'0 0.0
2016-Jun-19 10:33N 46°45' W 092°06'0 0.0
2016-Jun-19 09:33N 46°45' W 092°06'0 0.0
2016-Jun-19 08:33N 46°45' W 092°06'0 0.0
2016-Jun-19 07:33N 46°45' W 092°06'0 0.0
2016-Jun-19 06:33N 46°45' W 092°06'0 0.0
2016-Jun-19 05:33N 46°45' W 092°06'0 0.0
2016-Jun-19 04:33N 46°45' W 092°06'0 0.0
2016-Jun-19 03:33N 46°45' W 092°06'0 0.0
2016-Jun-19 02:33N 46°45' W 092°06'0 0.4
2016-Jun-19 01:33N 46°45' W 092°05'8 7.7
2016-Jun-19 00:33N 46°50' W 091°56'1313.2
2016-Jun-18 23:33N 46°54' W 091°38'  
Track history (hours):
 
Tides and Currents Weather Stations Pressure Air Temp Water Temp Dewpoint Dewpoint Depression Visibility Wind Speed Wind Dir Waves Ship Positions

Tim S. Dool

Last reported at 2016-Jun-28 18:13 UTC. Time now 2016-Jun-28 20:43 UTC.
Position N 43°01' W 079°13'.

Length 223 m; draft 6.5 m.

Type: Cargo ship. MMSI: 316001696.

Date/timePositionNaut miles runAvg speedWind from/ knotsBaromVisibWave heightAir tempDewpointWater temp
2016-Jun-28 18:13N 43°01' W 079°13'4 6.6
2016-Jun-28 17:33N 43°06' W 079°12'2 2.4
2016-Jun-28 16:32N 43°08' W 079°12'0 0.2
2016-Jun-28 15:32N 43°08' W 079°12'1 1.2
2016-Jun-28 14:34N 43°09' W 079°12'2 2.1
2016-Jun-28 13:33N 43°11' W 079°12'0 0.4
2016-Jun-28 12:31N 43°12' W 079°12'2 1.6
2016-Jun-28 11:32N 43°13' W 079°13'5 5.6
2016-Jun-28 10:33N 43°17' W 079°18'4 0.2
2016-Jun-27 09:11N 43°17' W 079°24'710.3
2016-Jun-27 08:31N 43°16' W 079°15'3 3.3
2016-Jun-27 07:29N 43°13' W 079°13'2 1.3
2016-Jun-27 06:19N 43°12' W 079°12'200 4.8
2016-Jun-25 13:00N 45°06' W 083°00'6411.6 220 / 41016.010.8 0.519.0
2016-Jun-25 07:31N 45°57' W 083°54'19910.2
2016-Jun-24 12:00N 47°36' W 088°06'14913.0 230 / 91013.010.8 14.0
2016-Jun-24 00:33N 46°54' W 091°36'1312.7
2016-Jun-23 23:33N 46°47' W 091°52'8 7.4
2016-Jun-23 22:26N 46°42' W 092°01'0 0.0
2016-Jun-23 21:26N 46°42' W 092°01'0 0.0
2016-Jun-23 20:29N 46°42' W 092°01'0 0.0
2016-Jun-23 19:29N 46°42' W 092°01'0 0.0
2016-Jun-23 18:29N 46°42' W 092°01'0 0.0
2016-Jun-23 17:32N 46°42' W 092°01'0 0.0
2016-Jun-23 16:32N 46°42' W 092°01'0 0.0
2016-Jun-23 15:32N 46°42' W 092°01'0 0.0
2016-Jun-23 14:32N 46°42' W 092°01'0 0.0
2016-Jun-23 13:32N 46°42' W 092°01'0 0.0
2016-Jun-23 12:33N 46°42' W 092°01'0 0.0
2016-Jun-23 11:33N 46°42' W 092°01'0 0.0
2016-Jun-23 10:24N 46°42' W 092°01'0 0.1
2016-Jun-23 09:27N 46°42' W 092°01'2 2.0
2016-Jun-23 08:31N 46°43' W 091°60'2 2.4
2016-Jun-23 07:31N 46°46' W 091°58'0 0.1
2016-Jun-23 05:22N 46°46' W 091°59'0 0.0
2016-Jun-23 04:31N 46°46' W 091°58'0 0.0
2016-Jun-23 03:22N 46°46' W 091°59'0 0.1
2016-Jun-23 02:25N 46°46' W 091°58'0 0.1
2016-Jun-23 01:25N 46°46' W 091°59'0 0.0
2016-Jun-23 00:25N 46°46' W 091°59'0 0.0
2016-Jun-22 23:28N 46°46' W 091°59'0 0.0
2016-Jun-22 22:13N 46°46' W 091°59'0 0.0
2016-Jun-22 21:25N 46°46' W 091°59'0 0.0
2016-Jun-22 20:31N 46°46' W 091°59'0 0.0
2016-Jun-22 19:31N 46°46' W 091°59'0 0.0
2016-Jun-22 18:19N 46°46' W 091°59'0 0.0
2016-Jun-22 17:31N 46°46' W 091°59'0 0.0
2016-Jun-22 16:31N 46°46' W 091°59'4 4.2
2016-Jun-22 15:33N 46°43' W 092°03'3 2.7
2016-Jun-22 14:33N 46°45' W 092°06'0 0.0
2016-Jun-22 13:21N 46°45' W 092°06'0 0.0
2016-Jun-22 12:33N 46°45' W 092°06'0 0.0
2016-Jun-22 11:33N 46°45' W 092°06'0 0.0
2016-Jun-22 10:24N 46°45' W 092°06'0 0.0
2016-Jun-22 09:21N 46°45' W 092°06'0 0.0
2016-Jun-22 08:27N 46°45' W 092°06'0 0.0
2016-Jun-22 07:27N 46°45' W 092°06'0 0.0
2016-Jun-22 06:27N 46°45' W 092°06'0 0.0
2016-Jun-22 05:30N 46°45' W 092°06'0 0.0
2016-Jun-22 04:30N 46°45' W 092°06'0 0.0
2016-Jun-22 03:33N 46°45' W 092°06'0 0.0
2016-Jun-22 02:33N 46°45' W 092°06'0 0.0
2016-Jun-22 01:30N 46°45' W 092°06'0 0.0
2016-Jun-22 00:33N 46°45' W 092°06'0 0.0
2016-Jun-21 23:33N 46°45' W 092°06'0 0.0
2016-Jun-21 22:33N 46°45' W 092°06'0 0.0
2016-Jun-21 21:33N 46°45' W 092°06'0 0.0
2016-Jun-21 20:21N 46°45' W 092°06'0 0.0
2016-Jun-21 19:24N 46°45' W 092°06'0 0.0
2016-Jun-21 18:27N 46°45' W 092°06'0 0.0
2016-Jun-21 17:27N 46°45' W 092°06'0 0.0
2016-Jun-21 16:30N 46°45' W 092°06'0 0.0
2016-Jun-21 15:30N 46°45' W 092°06'0 0.0
2016-Jun-21 14:30N 46°45' W 092°06'0 0.0
2016-Jun-21 13:33N 46°45' W 092°06'0 0.0
2016-Jun-21 12:33N 46°45' W 092°06'0 0.0
2016-Jun-21 11:21N 46°45' W 092°06'0 0.0
2016-Jun-21 10:33N 46°45' W 092°06'0 0.0
2016-Jun-21 09:33N 46°45' W 092°06'0 0.0
2016-Jun-21 08:33N 46°45' W 092°06'0 0.0
2016-Jun-21 07:33N 46°45' W 092°06'0 0.0
2016-Jun-21 04:27N 46°45' W 092°06'0 0.0
2016-Jun-21 03:27N 46°45' W 092°06'0 0.0
2016-Jun-21 02:30N 46°45' W 092°06'0 0.0
2016-Jun-21 01:33N 46°45' W 092°06'0 0.0
2016-Jun-21 00:33N 46°45' W 092°06'0 0.0
2016-Jun-20 23:33N 46°45' W 092°06'0 0.0
2016-Jun-20 22:33N 46°45' W 092°06'0 0.0
2016-Jun-20 21:33N 46°45' W 092°06'0 0.0
2016-Jun-20 20:33N 46°45' W 092°06'0 0.0
2016-Jun-20 19:33N 46°45' W 092°06'0 0.0
2016-Jun-20 18:33N 46°45' W 092°06'0 0.0
2016-Jun-20 17:33N 46°45' W 092°06'0 0.0
2016-Jun-20 16:33N 46°45' W 092°06'0 0.0
2016-Jun-20 15:33N 46°45' W 092°06'0 0.0
2016-Jun-20 14:34N 46°45' W 092°06'0 0.0
2016-Jun-20 13:33N 46°45' W 092°06'0 0.0
2016-Jun-20 12:33N 46°45' W 092°06'0 0.0
2016-Jun-20 11:33N 46°45' W 092°06'0 0.0
2016-Jun-20 10:33N 46°45' W 092°06'0 0.0
2016-Jun-20 09:33N 46°45' W 092°06'0 0.0
2016-Jun-20 08:33N 46°45' W 092°06'0 0.0
2016-Jun-20 07:33N 46°45' W 092°06'0 0.0
2016-Jun-20 06:33N 46°45' W 092°06'0 0.0
2016-Jun-20 05:33N 46°45' W 092°06'0 0.0
2016-Jun-20 04:34N 46°45' W 092°06'0 0.0
2016-Jun-20 03:33N 46°45' W 092°06'0 0.0
2016-Jun-20 02:33N 46°45' W 092°06'0 0.0
2016-Jun-20 01:33N 46°45' W 092°06'0 0.0
2016-Jun-20 00:33N 46°45' W 092°06'0 0.0
2016-Jun-19 23:33N 46°45' W 092°06'0 0.0
2016-Jun-19 22:33N 46°45' W 092°06'0 0.0
2016-Jun-19 21:33N 46°45' W 092°06'0 0.0
2016-Jun-19 20:33N 46°45' W 092°06'0 0.0
2016-Jun-19 19:33N 46°45' W 092°06'0 0.0
2016-Jun-19 18:33N 46°45' W 092°06'0 0.0
2016-Jun-19 17:33N 46°45' W 092°06'0 0.0
2016-Jun-19 16:33N 46°45' W 092°06'0 0.0
2016-Jun-19 15:33N 46°45' W 092°06'0 0.0
2016-Jun-19 14:33N 46°45' W 092°06'0 0.0
2016-Jun-19 13:33N 46°45' W 092°06'0 0.0
2016-Jun-19 12:33N 46°45' W 092°06'0 0.0
2016-Jun-19 11:33N 46°45' W 092°06'0 0.0
2016-Jun-19 10:33N 46°45' W 092°06'0 0.0
2016-Jun-19 09:33N 46°45' W 092°06'0 0.0
2016-Jun-19 08:33N 46°45' W 092°06'0 0.0
2016-Jun-19 07:33N 46°45' W 092°06'0 0.0
2016-Jun-19 06:33N 46°45' W 092°06'0 0.0
2016-Jun-19 05:33N 46°45' W 092°06'0 0.0
2016-Jun-19 04:33N 46°45' W 092°06'0 0.0
2016-Jun-19 03:33N 46°45' W 092°06'0 0.0
2016-Jun-19 02:33N 46°45' W 092°06'0 0.4
2016-Jun-19 01:33N 46°45' W 092°05'8 7.7
2016-Jun-19 00:33N 46°50' W 091°56'1313.2
2016-Jun-18 23:33N 46°54' W 091°38'  

Dump ship's entire track history